Página principal
METAR-TAF:

METAR-TAF

Aeroportos :

Haines, Alasca, Estados Unidos

latitude: 59-15N, longitude: 135-31W, altura: 5 m

Observação actual do tempo

O boletim foi feito há 30 minutos, às 11:54 UTC
Vento 10 kt de oes-noroeste
Temperatura 4°C
Humidade 44%
Pressão 1025 hPa
Visibilidade: 16.1 km
Céu limpo

METAR: PAHN 151154Z AUTO 30010KT 10SM CLR 04/M07 A3028 RMK AO2 SLP257 T00391072 10061 20039 51029 TSNO

Hora: 04:24 (12:24 UTC)

Previsão

O boletim foi feito há 1 hora e 0 minutos, às 11:24 UTC
Previsão válida de 15 às 12 UTC a 16 às 12 UTC
Vento 10 kt de oes-noroeste
Visibilidade: 10 km
Nuvens dispersasa uma altura de 6000 ft

TAF: PAHN 151124Z 1512/1612 29010KT P6SM SCT060 AMD LTD TO CLD VIS AND WIND

Observações e previsões do tempo de mais de 4000 aeroportos (mensagens METAR e TAF).

As estações disponíveis são os pontos amarelos e vermelhos sobre o mapa.

Mova o rato sobre o mapa para ver o nome da estação.

Depois clique no ponto para visualizar as observações e previsões meteorológicas.

Para alterar o mapa : clique nos botões verdes com uma cruz preta para aumentar o zoom; no botão verde com uma pitada de zoom; ou nas setas verdes para mapas adjacentes.


METAR-TAF: